Time;durP1;ratioP1;P1;durP2;ratioP2;P2;SDS_P1;SDS_P2;PMS_P1;PMS_P2;Temp;Humidity;BMP_temperature;BMP_pressure;BME280_temperature;BME280_humidity;BME280_pressure;Samples;Min_cycle;Max_cycle;Signal;HPM_P1;HPM_P2
2022/11/05 00:16:42;;;;;;;5.90;1.85;;;22.00;84.80;;;;;;4955441;28;20489;-91
2022/11/05 00:16:54;;;;;;;5.35;1.63;;;21.30;85.20;;;;;;4962748;28;20883;-87
2022/11/05 00:19:21;;;;;;;6.13;1.90;;;21.00;87.90;;;;;;4960103;28;20738;-89
2022/11/05 00:27:18;;;;;;;6.25;1.63;;;22.00;88.70;;;;;;4971100;28;20547;-85
2022/11/05 00:29:45;;;;;;;5.43;1.80;;;22.30;84.70;;;;;;4964420;28;20404;-84
2022/11/05 00:32:12;;;;;;;16.02;2.17;;;22.70;85.50;;;;;;4979894;28;20476;-82
2022/11/05 00:34:39;;;;;;;7.97;1.95;;;22.60;83.90;;;;;;5005056;28;20383;-82
2022/11/05 00:37:06;;;;;;;4.53;1.63;;;22.50;84.70;;;;;;4999128;28;20386;-81
2022/11/05 00:39:33;;;;;;;45.47;3.10;;;22.50;82.70;;;;;;4997812;28;20531;-85
2022/11/05 00:45:00;;;;;;;24.75;2.60;;;22.50;83.30;;;;;;5009582;28;20394;-81
2022/11/05 00:50:14;;;;;;;4.72;1.80;;;23.90;77.40;;;;;;5009340;28;20390;-83
2022/11/05 00:52:57;;;;;;;4.60;1.77;;;23.90;75.60;;;;;;5010824;28;20386;-84
2022/11/05 00:55:44;;;;;;;6.20;1.60;;;23.70;77.40;;;;;;5010543;28;20800;-82
2022/11/05 00:58:22;;;;;;;4.63;1.40;;;23.60;76.80;;;;;;5003017;28;20390;-84
2022/11/05 01:00:54;;;;;;;4.22;1.50;;;23.60;76.50;;;;;;5010089;28;20379;-87
2022/11/05 01:03:25;;;;;;;9.05;1.70;;;23.50;76.50;;;;;;5001688;28;20918;-82
2022/11/05 01:05:58;;;;;;;121.20;7.20;;;23.50;75.20;;;;;;5010738;28;20390;-86
2022/11/05 01:08:26;;;;;;;38.33;3.30;;;23.80;74.00;;;;;;5010140;28;20382;-81
2022/11/05 01:10:56;;;;;;;6.28;1.75;;;24.00;75.30;;;;;;5007278;28;20375;-82
2022/11/05 01:13:26;;;;;;;5.63;1.90;;;24.00;71.30;;;;;;5010603;28;20440;-80
2022/11/05 01:15:54;;;;;;;4.60;1.83;;;23.90;70.80;;;;;;5009652;28;20384;-82
2022/11/05 01:18:24;;;;;;;4.25;1.60;;;23.50;73.20;;;;;;4988276;28;20898;-81
2022/11/05 01:20:51;;;;;;;5.50;1.58;;;23.20;74.00;;;;;;4996389;28;20752;-80
2022/11/05 01:23:18;;;;;;;4.32;1.50;;;23.40;74.40;;;;;;4989730;28;20805;-79
2022/11/05 01:25:45;;;;;;;4.70;1.60;;;23.60;73.90;;;;;;5003831;28;20462;-82
2022/11/05 01:28:12;;;;;;;7.80;1.80;;;23.70;74.00;;;;;;5010102;28;20473;-81
2022/11/05 01:30:40;;;;;;;4.55;1.90;;;23.80;71.90;;;;;;5007091;28;20393;-81
2022/11/05 01:33:07;;;;;;;4.60;1.70;;;23.90;69.30;;;;;;5007823;28;20470;-81
2022/11/05 01:35:34;;;;;;;4.73;1.80;;;23.70;70.50;;;;;;5010244;28;20374;-82
2022/11/05 01:38:01;;;;;;;5.10;1.80;;;23.70;71.00;;;;;;4996035;28;20480;-80
2022/11/05 01:40:28;;;;;;;5.20;1.50;;;23.70;71.60;;;;;;5010319;28;20803;-81
2022/11/05 01:42:55;;;;;;;4.50;1.60;;;23.60;71.50;;;;;;4992867;28;20399;-81
2022/11/05 01:45:25;;;;;;;5.10;1.73;;;23.60;70.80;;;;;;4999819;28;20445;-79
2022/11/05 01:48:14;;;;;;;3.17;1.40;;;23.60;70.20;;;;;;4998946;28;20391;-79
2022/11/05 01:50:48;;;;;;;5.43;1.42;;;23.70;70.20;;;;;;5009970;28;20417;-80
2022/11/05 01:53:18;;;;;;;3.57;1.53;;;23.60;70.00;;;;;;5003702;28;20450;-80
2022/11/05 01:55:59;;;;;;;4.95;1.50;;;23.60;69.80;;;;;;5010162;28;20406;-81
2022/11/05 01:58:32;;;;;;;2.90;1.50;;;23.70;70.70;;;;;;5003576;28;20871;-81
2022/11/05 02:01:00;;;;;;;3.47;1.50;;;23.90;69.20;;;;;;5005995;28;20403;-84
2022/11/05 02:03:27;;;;;;;6.32;1.67;;;24.20;68.20;;;;;;5002763;28;20827;-85
2022/11/05 02:05:56;;;;;;;4.15;1.60;;;24.40;67.50;;;;;;5008638;28;20394;-81
2022/11/05 02:09:01;;;;;;;2.95;1.42;;;24.90;68.80;;;;;;5003426;28;20393;-80
2022/11/05 02:11:28;;;;;;;4.32;1.48;;;25.70;66.30;;;;;;4966604;28;20441;-82
2022/11/05 02:13:55;;;;;;;6.53;2.35;;;25.20;65.20;;;;;;4970868;28;20421;-81
2022/11/05 02:16:22;;;;;;;7.17;2.43;;;24.60;66.70;;;;;;4970643;28;20983;-81
2022/11/05 02:18:59;;;;;;;4.30;1.83;;;24.20;68.30;;;;;;4971689;28;20803;-82
2022/11/05 02:21:50;;;;;;;5.82;1.98;;;23.80;69.80;;;;;;4971306;28;20921;-81
2022/11/05 02:24:26;;;;;;;4.63;1.50;;;23.60;71.20;;;;;;4971508;28;20421;-85
2022/11/05 02:27:11;;;;;;;5.18;1.52;;;23.90;70.10;;;;;;4955516;28;20388;-83
2022/11/05 02:29:57;;;;;;;5.05;1.42;;;24.10;70.50;;;;;;4971096;28;20410;-82
2022/11/05 02:32:30;;;;;;;4.72;1.60;;;24.70;69.40;;;;;;4971309;28;20437;-81
2022/11/05 02:35:21;;;;;;;5.05;1.50;;;25.00;68.00;;;;;;4971195;28;20905;-82
2022/11/05 02:38:06;;;;;;;5.10;1.43;;;25.20;66.50;;;;;;4971480;28;20497;-82
2022/11/05 02:40:53;;;;;;;5.55;1.58;;;25.80;66.60;;;;;;4971236;28;20391;-84
2022/11/05 02:43:47;;;;;;;3.65;1.20;;;27.10;63.60;;;;;;4910973;29;20422;-79
2022/11/05 02:46:50;;;;;;;3.65;1.58;;;28.00;61.60;;;;;;4852124;29;20889;-81
2022/11/05 02:49:17;;;;;;;4.18;1.35;;;28.40;59.40;;;;;;4876341;29;20441;-81
2022/11/05 02:51:58;;;;;;;3.65;1.50;;;28.60;58.40;;;;;;4876520;29;20403;-82
2022/11/05 02:54:41;;;;;;;3.77;1.37;;;28.10;58.90;;;;;;4876457;29;20411;-82
2022/11/05 02:57:08;;;;;;;5.70;1.60;;;27.30;59.40;;;;;;4876358;29;20399;-84
2022/11/05 02:59:35;;;;;;;4.25;1.63;;;26.80;59.50;;;;;;4876796;29;20435;-80
2022/11/05 03:02:03;;;;;;;5.45;1.77;;;26.40;60.10;;;;;;4875532;29;20439;-80
2022/11/05 03:04:31;;;;;;;4.60;1.60;;;25.90;61.60;;;;;;4876307;29;20439;-80
2022/11/05 03:07:07;;;;;;;5.03;1.60;;;25.60;61.80;;;;;;4876980;29;20436;-80
2022/11/05 03:09:59;;;;;;;5.47;1.60;;;25.50;63.10;;;;;;4885377;29;21237;-81
2022/11/05 03:12:42;;;;;;;3.92;1.60;;;25.30;64.10;;;;;;4881369;29;20473;-82
2022/11/05 03:15:18;;;;;;;4.32;1.55;;;25.10;64.40;;;;;;4874753;29;20572;-81
2022/11/05 03:18:01;;;;;;;5.32;1.70;;;25.00;65.50;;;;;;4876067;29;20399;-83
2022/11/05 03:20:58;;;;;;;5.73;1.77;;;24.90;66.40;;;;;;4885504;29;20465;-82
2022/11/05 03:24:05;;;;;;;5.38;1.75;;;25.40;66.20;;;;;;4958896;28;20479;-84
2022/11/05 03:26:40;;;;;;;3.70;1.63;;;27.20;63.00;;;;;;5011294;28;20400;-85
2022/11/05 03:29:15;;;;;;;6.20;1.65;;;28.50;61.20;;;;;;5004783;28;20410;-82
2022/11/05 03:31:47;;;;;;;4.70;1.42;;;30.50;59.70;;;;;;4979067;28;20388;-83
2022/11/05 03:34:17;;;;;;;4.87;1.80;;;31.80;55.20;;;;;;5003793;28;20478;-86
2022/11/05 03:36:52;;;;;;;4.80;1.70;;;32.50;53.20;;;;;;5011989;28;20855;-82
2022/11/05 03:39:33;;;;;;;5.03;1.60;;;33.20;51.50;;;;;;5006051;28;20814;-82
2022/11/05 03:42:03;;;;;;;4.75;1.50;;;33.50;50.80;;;;;;5012311;28;20363;-83
2022/11/05 03:44:35;;;;;;;2.33;1.35;;;33.90;50.00;;;;;;5001227;28;20916;-85
2022/11/05 03:47:14;;;;;;;2.63;1.30;;;34.10;49.00;;;;;;4998308;28;20387;-85
2022/11/05 03:50:03;;;;;;;2.58;1.35;;;33.90;48.30;;;;;;4996746;28;20451;-84
2022/11/05 03:52:35;;;;;;;3.67;1.40;;;33.30;47.60;;;;;;5010677;28;20938;-82
2022/11/05 03:55:02;;;;;;;3.85;1.60;;;32.20;50.40;;;;;;5011248;28;20494;-82
2022/11/05 03:57:33;;;;;;;7.50;2.88;;;32.50;49.10;;;;;;5005538;28;20444;-82
2022/11/05 04:00:00;;;;;;;6.45;4.57;;;32.60;50.20;;;;;;5010379;28;20802;-83
2022/11/05 04:02:27;;;;;;;9.55;4.30;;;33.00;50.90;;;;;;5011253;28;20379;-84
2022/11/05 04:04:55;;;;;;;8.65;4.90;;;33.10;50.00;;;;;;5005518;28;20397;-83
2022/11/05 04:13:26;;;;;;;8.07;4.10;;;33.20;49.30;;;;;;4937215;29;20392;-86
2022/11/05 04:18:40;;;;;;;6.90;4.70;;;33.60;49.50;;;;;;4936301;29;20545;-84
2022/11/05 04:24:09;;;;;;;7.85;4.88;;;31.90;51.60;;;;;;4939273;29;20428;-86
2022/11/05 04:26:42;;;;;;;10.30;4.45;;;31.50;52.30;;;;;;4936877;29;20434;-83
2022/11/05 04:31:55;;;;;;;8.60;4.53;;;29.70;54.00;;;;;;4927282;29;20426;-82
2022/11/05 04:34:23;;;;;;;6.80;4.03;;;30.20;54.30;;;;;;4950505;29;20400;-81
2022/11/05 04:36:51;;;;;;;8.88;4.43;;;30.60;53.10;;;;;;4943583;28;21012;-87
2022/11/05 04:39:20;;;;;;;6.88;3.60;;;31.20;52.50;;;;;;4938416;29;20421;-89
2022/11/05 04:41:47;;;;;;;6.65;4.38;;;31.50;51.90;;;;;;4944719;29;20458;-82
2022/11/05 04:44:15;;;;;;;6.32;3.70;;;31.40;52.50;;;;;;4982614;28;20905;-86
2022/11/05 04:46:43;;;;;;;6.70;3.67;;;31.20;52.00;;;;;;5010458;28;20462;-81
2022/11/05 04:49:09;;;;;;;6.75;3.67;;;30.00;53.90;;;;;;5000209;28;20459;-81
2022/11/05 04:51:36;;;;;;;8.98;5.80;;;29.10;55.00;;;;;;4993197;28;20399;-79
2022/11/05 04:54:04;;;;;;;10.73;7.53;;;27.80;57.10;;;;;;5004539;28;20936;-80
2022/11/05 04:56:31;;;;;;;13.30;9.57;;;27.10;59.40;;;;;;5000098;28;20397;-80
2022/11/05 04:58:58;;;;;;;14.63;9.30;;;26.70;59.70;;;;;;5000693;28;20516;-80
2022/11/05 05:01:25;;;;;;;15.83;11.43;;;26.60;60.80;;;;;;5007706;28;20881;-82
2022/11/05 05:03:54;;;;;;;18.20;12.90;;;27.40;59.50;;;;;;4993316;28;20496;-83
2022/11/05 05:06:21;;;;;;;17.63;12.77;;;28.60;57.80;;;;;;5004454;28;20423;-82
2022/11/05 05:08:50;;;;;;;13.68;10.10;;;29.60;55.90;;;;;;4984791;28;20752;-81
2022/11/05 05:11:19;;;;;;;18.97;8.03;;;29.90;55.30;;;;;;4996146;28;20426;-82
2022/11/05 05:13:47;;;;;;;12.15;8.35;;;29.90;55.00;;;;;;5002482;28;20895;-83
2022/11/05 05:16:24;;;;;;;20.23;14.38;;;29.80;55.20;;;;;;4999524;28;20394;-80
2022/11/05 05:18:52;;;;;;;20.27;14.43;;;30.10;54.60;;;;;;5004598;28;20385;-82
2022/11/05 05:21:39;;;;;;;16.55;13.25;;;29.60;54.70;;;;;;4997679;28;20434;-81
2022/11/05 05:24:09;;;;;;;22.35;16.92;;;28.40;55.60;;;;;;4994835;28;20424;-81
2022/11/05 05:26:37;;;;;;;25.17;18.67;;;27.60;57.50;;;;;;5007322;28;20903;-82
2022/11/05 05:29:05;;;;;;;22.58;18.67;;;27.20;58.10;;;;;;4998487;28;20401;-82
2022/11/05 05:31:33;;;;;;;22.30;18.20;;;27.50;58.70;;;;;;4998666;28;20383;-82
2022/11/05 05:34:00;;;;;;;25.77;17.55;;;28.20;57.90;;;;;;4992257;28;20421;-83
2022/11/05 05:36:27;;;;;;;20.88;15.73;;;28.70;55.90;;;;;;4997102;28;20391;-82
2022/11/05 05:38:54;;;;;;;18.67;14.63;;;28.80;55.20;;;;;;5001019;28;20420;-83
2022/11/05 05:41:21;;;;;;;23.85;18.63;;;28.60;55.50;;;;;;4993028;28;20380;-80
2022/11/05 05:43:48;;;;;;;25.67;22.15;;;27.60;56.30;;;;;;5006092;28;20411;-86
2022/11/05 05:46:17;;;;;;;23.52;17.83;;;26.80;57.70;;;;;;4994353;28;20408;-89
2022/11/05 05:48:49;;;;;;;22.05;18.55;;;26.50;58.90;;;;;;4999950;28;20411;-83
2022/11/05 05:51:17;;;;;;;27.77;22.17;;;27.10;58.40;;;;;;5014235;28;20435;-85
2022/11/05 05:53:44;;;;;;;25.65;22.10;;;27.60;57.30;;;;;;4999446;28;20459;-87
2022/11/05 05:56:13;;;;;;;23.58;19.15;;;27.70;57.20;;;;;;4999909;28;20398;-85
2022/11/05 05:58:41;;;;;;;25.63;20.65;;;28.00;56.30;;;;;;4994416;28;20393;-86
2022/11/05 06:01:11;;;;;;;28.60;20.73;;;28.10;55.80;;;;;;4987256;28;20375;-85
2022/11/05 06:03:38;;;;;;;35.28;30.38;;;27.70;55.80;;;;;;5001290;28;20392;-90
2022/11/05 06:06:13;;;;;;;37.08;31.13;;;26.80;56.60;;;;;;5008764;28;20420;-85
2022/11/05 06:08:42;;;;;;;37.25;32.10;;;26.50;58.40;;;;;;4998317;28;20401;-83
2022/11/05 06:11:09;;;;;;;37.08;30.40;;;26.60;58.20;;;;;;4994503;28;20403;-82
2022/11/05 06:13:36;;;;;;;33.53;28.20;;;27.20;57.90;;;;;;4993854;28;20745;-82
2022/11/05 06:16:08;;;;;;;28.30;24.77;;;27.70;56.30;;;;;;4995040;28;20384;-84
2022/11/05 06:18:35;;;;;;;27.83;22.10;;;28.00;55.90;;;;;;4985494;28;20545;-84
2022/11/05 06:21:05;;;;;;;27.27;22.85;;;27.60;55.60;;;;;;5000955;28;21355;-83
2022/11/05 06:23:33;;;;;;;26.60;21.90;;;27.20;57.20;;;;;;4999879;28;20413;-82
2022/11/05 06:26:05;;;;;;;22.15;18.15;;;27.50;57.70;;;;;;5002264;28;20393;-83
2022/11/05 06:28:33;;;;;;;17.98;14.50;;;27.60;57.20;;;;;;5002734;28;20482;-86
2022/11/05 06:31:00;;;;;;;20.23;15.05;;;27.60;57.30;;;;;;4993969;28;20440;-82
2022/11/05 06:33:28;;;;;;;19.83;14.93;;;26.90;57.40;;;;;;4998515;28;20397;-87
2022/11/05 06:35:58;;;;;;;20.45;15.55;;;26.20;59.10;;;;;;4996733;28;20419;-83
2022/11/05 06:38:25;;;;;;;20.42;15.90;;;26.20;59.60;;;;;;4999544;28;20486;-83
2022/11/05 06:40:52;;;;;;;22.08;15.57;;;25.90;60.60;;;;;;5004377;28;20429;-85
2022/11/05 06:43:19;;;;;;;19.85;15.00;;;25.80;61.20;;;;;;5006764;28;20396;-83
2022/11/05 06:45:46;;;;;;;19.17;15.63;;;26.00;60.80;;;;;;5002963;28;21004;-82
2022/11/05 06:48:13;;;;;;;23.37;15.97;;;26.30;60.40;;;;;;4998430;28;20388;-80
2022/11/05 06:50:44;;;;;;;20.52;16.23;;;26.60;59.60;;;;;;4998115;28;20400;-82
2022/11/05 06:53:11;;;;;;;21.13;15.07;;;26.80;59.50;;;;;;4994061;28;20401;-80
2022/11/05 06:55:38;;;;;;;21.30;15.90;;;26.40;60.10;;;;;;4994188;28;20390;-78
2022/11/05 06:58:05;;;;;;;21.83;15.77;;;25.70;61.70;;;;;;4994428;28;20738;-80
2022/11/05 07:00:32;;;;;;;26.77;14.32;;;25.10;63.50;;;;;;4996733;28;20870;-80
2022/11/05 07:03:06;;;;;;;25.27;10.85;;;24.60;65.20;;;;;;4995154;28;20524;-80
2022/11/05 07:05:37;;;;;;;28.65;9.65;;;24.10;66.30;;;;;;4997416;28;20392;-82
2022/11/05 07:08:04;;;;;;;48.67;11.52;;;23.70;67.00;;;;;;5002312;28;20438;-80
2022/11/05 07:10:31;;;;;;;15.77;8.55;;;23.40;68.50;;;;;;4996235;28;20392;-81
2022/11/05 07:12:58;;;;;;;13.15;6.93;;;23.10;68.80;;;;;;4997861;28;20409;-80
2022/11/05 07:15:25;;;;;;;12.30;7.65;;;22.90;68.80;;;;;;4999945;28;20876;-83
2022/11/05 07:18:00;;;;;;;11.57;7.80;;;22.90;69.90;;;;;;5001740;28;20772;-81
2022/11/05 07:20:27;;;;;;;14.10;7.80;;;23.30;68.70;;;;;;4997892;28;20407;-80
2022/11/05 07:23:06;;;;;;;20.13;8.83;;;23.70;67.40;;;;;;4998902;28;20407;-83
2022/11/05 07:25:34;;;;;;;16.98;11.65;;;24.10;65.80;;;;;;4984819;28;20741;-83
2022/11/05 07:28:02;;;;;;;17.40;12.57;;;24.10;65.40;;;;;;5003139;28;20390;-92
2022/11/05 07:30:29;;;;;;;18.40;12.80;;;23.90;65.90;;;;;;5009827;28;20379;-82
2022/11/05 07:32:57;;;;;;;16.05;11.50;;;23.80;66.50;;;;;;5006798;28;20375;-91
2022/11/05 07:35:24;;;;;;;16.88;10.35;;;23.60;66.20;;;;;;5001431;28;20393;-88
2022/11/05 07:37:55;;;;;;;13.88;8.25;;;23.60;67.00;;;;;;5011652;28;20398;-86
2022/11/05 07:40:25;;;;;;;17.67;7.13;;;23.40;67.20;;;;;;5011914;28;20860;-83
2022/11/05 07:42:57;;;;;;;12.73;6.70;;;23.30;67.60;;;;;;5011905;28;20410;-88
2022/11/05 07:45:26;;;;;;;9.05;6.35;;;23.20;66.70;;;;;;5008625;28;20395;-89
2022/11/05 07:47:59;;;;;;;8.45;4.72;;;23.10;67.00;;;;;;4989278;28;20378;-89
2022/11/05 07:50:29;;;;;;;11.10;5.00;;;22.80;67.10;;;;;;4979597;28;20829;-86
2022/11/05 07:53:08;;;;;;;7.38;3.90;;;22.50;67.50;;;;;;5003284;28;20460;-85
2022/11/05 07:55:36;;;;;;;8.68;4.10;;;22.40;67.90;;;;;;5004458;28;20404;-86
2022/11/05 07:58:03;;;;;;;8.85;4.88;;;22.10;68.10;;;;;;5000784;28;20434;-85
2022/11/05 08:00:31;;;;;;;9.53;5.10;;;21.90;68.30;;;;;;5003867;28;20388;-87
2022/11/05 08:02:59;;;;;;;10.05;4.82;;;21.60;68.80;;;;;;4998790;28;20407;-86
2022/11/05 08:05:35;;;;;;;8.52;4.65;;;21.50;69.20;;;;;;5016295;28;20998;-87
2022/11/05 08:08:02;;;;;;;8.65;4.18;;;21.30;69.70;;;;;;5004316;28;20383;-87
2022/11/05 08:10:30;;;;;;;7.25;3.83;;;21.00;71.00;;;;;;4992508;28;20420;-92
2022/11/05 08:12:57;;;;;;;9.07;4.03;;;20.80;71.90;;;;;;5002633;28;20391;-87
2022/11/05 08:15:24;;;;;;;6.88;3.53;;;20.50;73.50;;;;;;4990689;28;20397;-86
2022/11/05 08:18:02;;;;;;;5.60;3.67;;;20.30;74.20;;;;;;5000244;28;20418;-91
2022/11/05 08:20:29;;;;;;;6.95;3.60;;;20.20;75.50;;;;;;4998243;28;20980;-87
2022/11/05 08:22:57;;;;;;;8.25;2.80;;;20.00;76.10;;;;;;4990451;28;20437;-88
2022/11/05 08:25:24;;;;;;;6.47;1.73;;;19.80;77.10;;;;;;4986318;28;20401;-86
2022/11/05 08:28:03;;;;;;;5.82;1.42;;;19.70;78.10;;;;;;5000189;28;20391;-86
2022/11/05 08:30:31;;;;;;;5.40;1.40;;;19.50;80.20;;;;;;5011411;28;20418;-86
2022/11/05 08:33:07;;;;;;;5.75;1.40;;;19.40;81.60;;;;;;4994775;28;20915;-86
2022/11/05 08:35:36;;;;;;;4.20;1.02;;;19.20;83.30;;;;;;4999980;28;20428;-84
2022/11/05 08:38:05;;;;;;;4.22;1.30;;;19.20;85.20;;;;;;5008429;28;20403;-85
2022/11/05 08:40:34;;;;;;;5.00;1.35;;;19.10;86.90;;;;;;5019563;28;20377;-86
2022/11/05 08:43:03;;;;;;;4.55;1.17;;;19.00;88.70;;;;;;5023482;28;20464;-82
2022/11/05 08:45:30;;;;;;;4.10;1.40;;;18.90;90.40;;;;;;5022973;28;20410;-83
2022/11/05 08:48:06;;;;;;;4.78;1.30;;;18.80;91.40;;;;;;5028132;28;20382;-85
2022/11/05 08:50:34;;;;;;;5.30;1.40;;;18.70;92.20;;;;;;5012252;28;20373;-84
2022/11/05 08:53:01;;;;;;;6.15;1.50;;;18.70;92.70;;;;;;5021216;28;20477;-86
2022/11/05 08:55:30;;;;;;;5.22;1.42;;;18.60;93.70;;;;;;5023969;28;20795;-87
2022/11/05 08:58:02;;;;;;;4.60;1.20;;;18.50;94.30;;;;;;5005684;28;20453;-85
2022/11/05 09:00:30;;;;;;;4.60;1.40;;;18.40;95.10;;;;;;5008403;28;20418;-85
2022/11/05 09:03:03;;;;;;;5.68;1.35;;;18.40;95.70;;;;;;5005166;28;20452;-84
2022/11/05 09:05:36;;;;;;;4.97;1.15;;;18.30;96.40;;;;;;5005993;28;20376;-85
2022/11/05 09:08:05;;;;;;;3.92;1.40;;;18.30;97.20;;;;;;4999421;28;20383;-84
2022/11/05 09:10:33;;;;;;;5.00;1.30;;;18.20;97.80;;;;;;4998623;28;20415;-84
2022/11/05 09:13:00;;;;;;;3.85;1.30;;;18.20;98.10;;;;;;5012109;28;20395;-84
2022/11/05 09:15:28;;;;;;;4.18;1.10;;;18.20;98.20;;;;;;4997805;28;20384;-85
2022/11/05 09:17:55;;;;;;;7.63;1.40;;;18.10;98.50;;;;;;5005370;28;20873;-89
2022/11/05 09:20:23;;;;;;;4.93;1.35;;;18.10;98.60;;;;;;4996833;28;20403;-85
2022/11/05 09:22:50;;;;;;;6.57;1.40;;;18.10;98.90;;;;;;5009652;28;20382;-85
2022/11/05 09:25:20;;;;;;;5.60;1.30;;;18.00;99.30;;;;;;5016031;28;20398;-94
2022/11/05 09:27:47;;;;;;;5.13;1.35;;;17.90;99.40;;;;;;5015335;28;20423;-86
2022/11/05 09:30:15;;;;;;;6.68;1.65;;;17.90;99.70;;;;;;5008614;28;20386;-86
2022/11/05 09:32:42;;;;;;;4.38;1.38;;;17.80;99.90;;;;;;4996903;28;20457;-82
2022/11/05 09:35:09;;;;;;;4.43;1.48;;;17.80;99.90;;;;;;4988028;28;20410;-90
2022/11/05 09:37:40;;;;;;;6.75;1.40;;;17.70;99.90;;;;;;5013986;28;20478;-89
2022/11/05 09:40:14;;;;;;;5.17;1.60;;;17.70;99.90;;;;;;5015049;28;20885;-84
2022/11/05 09:42:45;;;;;;;6.03;1.50;;;17.70;99.90;;;;;;5014752;28;20780;-84
2022/11/05 09:45:20;;;;;;;7.47;1.60;;;17.70;99.90;;;;;;5009193;28;20508;-84
2022/11/05 09:47:54;;;;;;;4.47;1.50;;;17.70;99.90;;;;;;4999370;28;20541;-83
2022/11/05 09:50:34;;;;;;;5.35;1.40;;;17.70;99.90;;;;;;4995963;28;20812;-84
2022/11/05 09:53:03;;;;;;;4.68;1.50;;;17.60;99.90;;;;;;5014337;28;20429;-84
2022/11/05 09:55:36;;;;;;;7.03;1.60;;;17.60;99.90;;;;;;4999354;28;20892;-85
2022/11/05 09:58:14;;;;;;;4.70;1.40;;;17.50;99.90;;;;;;4998923;28;20415;-83
2022/11/05 10:00:42;;;;;;;6.60;1.67;;;17.50;99.90;;;;;;4991191;28;20422;-84
2022/11/05 10:03:17;;;;;;;4.45;1.40;;;17.40;99.90;;;;;;5004889;28;20403;-85
2022/11/05 10:05:46;;;;;;;4.95;1.65;;;17.50;99.90;;;;;;5009799;28;20393;-85
2022/11/05 10:08:35;;;;;;;6.15;1.55;;;17.40;99.90;;;;;;4989610;28;20429;-85
2022/11/05 10:11:14;;;;;;;5.55;1.60;;;17.40;99.90;;;;;;4994576;28;20420;-84
2022/11/05 10:13:50;;;;;;;6.68;1.73;;;17.30;99.90;;;;;;4989343;28;20377;-84
2022/11/05 10:16:26;;;;;;;4.75;1.40;;;17.20;99.90;;;;;;4998264;28;20375;-84
2022/11/05 10:19:13;;;;;;;4.82;1.50;;;17.20;99.90;;;;;;4997254;28;20403;-85
2022/11/05 10:21:40;;;;;;;3.97;1.45;;;17.10;99.90;;;;;;4988197;28;20449;-84
2022/11/05 10:24:16;;;;;;;5.38;1.55;;;17.00;99.90;;;;;;5012683;28;20502;-83
2022/11/05 10:26:48;;;;;;;5.18;1.58;;;16.90;99.90;;;;;;5013263;28;20946;-83
2022/11/05 10:29:29;;;;;;;7.18;1.83;;;16.90;99.90;;;;;;5010776;28;20426;-83
2022/11/05 10:31:58;;;;;;;6.05;1.80;;;16.80;99.90;;;;;;4980838;28;20388;-84
2022/11/05 10:34:37;;;;;;;4.35;1.70;;;16.70;99.90;;;;;;5008780;28;20857;-84
2022/11/05 10:37:05;;;;;;;4.83;1.70;;;16.60;99.90;;;;;;4993887;28;20903;-90
2022/11/05 10:39:33;;;;;;;5.70;2.00;;;16.50;99.90;;;;;;4993271;28;20498;-84
2022/11/05 10:42:42;;;;;;;4.83;1.90;;;16.40;99.90;;;;;;4999903;28;20392;-83
2022/11/05 10:45:36;;;;;;;4.63;1.77;;;16.30;99.90;;;;;;4950166;28;20990;-82
2022/11/05 10:48:24;;;;;;;5.00;1.65;;;16.20;99.90;;;;;;4957390;28;20404;-82
2022/11/05 10:50:51;;;;;;;5.18;1.88;;;16.10;99.90;;;;;;4959936;28;20401;-84
2022/11/05 10:53:26;;;;;;;6.28;1.70;;;16.10;99.90;;;;;;4956996;28;20499;-84
2022/11/05 10:55:53;;;;;;;5.00;1.60;;;16.10;99.90;;;;;;4956559;28;20492;-87
2022/11/05 10:58:26;;;;;;;6.23;1.83;;;16.00;99.90;;;;;;4948193;28;20794;-89
2022/11/05 11:00:53;;;;;;;5.25;1.80;;;16.00;99.90;;;;;;4946176;28;20390;-84
2022/11/05 11:03:38;;;;;;;4.97;1.77;;;16.00;99.90;;;;;;4955086;28;20502;-86
2022/11/05 11:06:26;;;;;;;4.90;1.80;;;15.90;99.90;;;;;;4951626;28;20888;-86
2022/11/05 11:09:02;;;;;;;3.55;1.60;;;15.90;99.90;;;;;;4947590;28;20391;-84
2022/11/05 11:11:38;;;;;;;6.60;2.00;;;15.80;99.90;;;;;;4953414;28;20768;-86
2022/11/05 11:14:13;;;;;;;8.45;2.15;;;15.70;99.90;;;;;;4960159;28;20584;-87
2022/11/05 11:16:43;;;;;;;7.05;2.00;;;15.70;99.90;;;;;;4949194;28;20449;-85
2022/11/05 11:19:31;;;;;;;5.27;2.00;;;15.70;99.90;;;;;;4989433;28;20391;-87
2022/11/05 11:22:05;;;;;;;4.85;1.90;;;15.70;99.90;;;;;;4988738;28;20485;-85
2022/11/05 11:24:39;;;;;;;5.28;1.85;;;15.60;99.90;;;;;;5006033;28;20407;-87
2022/11/05 11:27:28;;;;;;;7.25;2.08;;;15.60;99.90;;;;;;5000935;28;20478;-84
2022/11/05 11:30:01;;;;;;;7.72;2.10;;;15.50;99.90;;;;;;4997756;28;20389;-87
2022/11/05 11:32:38;;;;;;;4.32;2.08;;;15.50;99.90;;;;;;4992040;28;20423;-86
2022/11/05 11:35:16;;;;;;;4.37;1.60;;;15.50;99.90;;;;;;4991714;28;20389;-86
2022/11/05 11:37:44;;;;;;;5.03;1.70;;;15.40;99.90;;;;;;4985933;28;21006;-84
2022/11/05 11:40:17;;;;;;;5.47;1.70;;;15.40;99.90;;;;;;4994136;28;20416;-86
2022/11/05 11:42:53;;;;;;;7.47;1.67;;;15.40;99.90;;;;;;5001967;28;20406;-86
2022/11/05 11:45:32;;;;;;;5.38;1.50;;;15.40;99.90;;;;;;4991779;28;20495;-86
2022/11/05 11:48:04;;;;;;;6.10;1.70;;;15.40;99.90;;;;;;4999843;28;20385;-84
2022/11/05 11:50:31;;;;;;;6.63;1.95;;;15.40;99.90;;;;;;4997829;28;20773;-85
2022/11/05 11:53:29;;;;;;;5.93;2.10;;;15.40;99.90;;;;;;4992259;28;20396;-86
2022/11/05 11:56:05;;;;;;;7.72;2.30;;;15.50;99.90;;;;;;4989919;28;20388;-87
2022/11/05 11:58:44;;;;;;;5.85;2.58;;;15.40;99.90;;;;;;4991003;28;20392;-84
2022/11/05 12:01:29;;;;;;;5.47;2.50;;;15.30;99.90;;;;;;4994389;28;20393;-87
2022/11/05 12:04:17;;;;;;;6.18;2.58;;;15.30;99.90;;;;;;4988888;28;20400;-85
2022/11/05 12:07:20;;;;;;;6.50;2.58;;;15.30;99.90;;;;;;4992914;28;20389;-85
2022/11/05 12:10:17;;;;;;;4.90;2.17;;;15.30;99.90;;;;;;4986368;28;20938;-84
2022/11/05 12:12:44;;;;;;;6.32;2.13;;;15.20;99.90;;;;;;4929275;29;20407;-85
2022/11/05 12:15:11;;;;;;;4.90;1.95;;;15.20;99.90;;;;;;4912739;29;20403;-86
2022/11/05 12:17:50;;;;;;;5.38;1.88;;;15.20;99.90;;;;;;4912897;29;20384;-83
2022/11/05 12:20:33;;;;;;;4.63;1.67;;;15.20;99.90;;;;;;4912953;29;20474;-84
2022/11/05 12:23:30;;;;;;;4.43;1.80;;;15.10;99.90;;;;;;4912894;29;20420;-84
2022/11/05 12:26:21;;;;;;;6.25;1.90;;;15.10;99.90;;;;;;4915579;29;20439;-83
2022/11/05 12:29:09;;;;;;;4.80;1.60;;;15.10;99.90;;;;;;4905238;29;20410;-85
2022/11/05 12:32:06;;;;;;;7.63;1.88;;;15.00;99.90;;;;;;4911340;29;20399;-84
2022/11/05 12:34:42;;;;;;;4.63;1.60;;;15.00;99.90;;;;;;4912556;29;20430;-83
2022/11/05 12:37:37;;;;;;;3.95;1.70;;;14.90;99.90;;;;;;4912292;29;20813;-84
2022/11/05 12:40:07;;;;;;;4.55;1.73;;;14.90;99.90;;;;;;4920971;29;20398;-82
2022/11/05 12:42:59;;;;;;;4.55;1.70;;;14.80;99.90;;;;;;4912373;29;20483;-83
2022/11/05 12:45:50;;;;;;;4.97;1.70;;;14.70;99.90;;;;;;4912327;29;20551;-83
2022/11/05 12:48:32;;;;;;;5.32;2.00;;;14.70;99.90;;;;;;4912012;29;20395;-82
2022/11/05 12:51:21;;;;;;;5.15;1.65;;;14.70;99.90;;;;;;5006906;28;20372;-84
2022/11/05 12:54:22;;;;;;;5.22;1.70;;;14.70;99.90;;;;;;4988152;28;20395;-83
2022/11/05 12:56:57;;;;;;;4.13;1.60;;;14.60;99.90;;;;;;5009354;28;20387;-82
2022/11/05 12:59:34;;;;;;;5.88;1.63;;;14.60;99.90;;;;;;5004525;28;20866;-82
2022/11/05 13:02:33;;;;;;;5.57;1.75;;;14.60;99.90;;;;;;5010760;28;20387;-83
2022/11/05 13:05:16;;;;;;;4.78;1.70;;;14.70;99.90;;;;;;5001580;28;20492;-82
2022/11/05 13:07:55;;;;;;;6.18;1.80;;;14.70;99.90;;;;;;5006443;28;20475;-83
2022/11/05 13:10:36;;;;;;;5.22;1.92;;;14.70;99.90;;;;;;5010835;28;20480;-82
2022/11/05 13:13:23;;;;;;;6.45;1.90;;;14.70;99.90;;;;;;5010240;28;20375;-83
2022/11/05 13:16:18;;;;;;;4.68;1.70;;;14.70;99.90;;;;;;4999988;28;20484;-83
2022/11/05 13:18:49;;;;;;;5.63;1.80;;;14.70;99.90;;;;;;5006886;28;20384;-83
2022/11/05 13:21:23;;;;;;;8.20;1.88;;;14.70;99.90;;;;;;5008232;28;20387;-84
2022/11/05 13:23:53;;;;;;;6.78;2.00;;;14.60;99.90;;;;;;5009013;28;20767;-82
2022/11/05 13:26:54;;;;;;;4.97;2.00;;;14.60;99.90;;;;;;5010028;28;20858;-82
2022/11/05 13:29:45;;;;;;;7.50;2.10;;;14.60;99.90;;;;;;4975556;28;20453;-81
2022/11/05 13:32:30;;;;;;;6.35;2.03;;;14.60;99.90;;;;;;4971557;28;20735;-82
2022/11/05 13:35:00;;;;;;;5.78;2.20;;;14.50;99.90;;;;;;4986809;28;20389;-84
2022/11/05 13:41:19;;;;;;;5.82;2.20;;;14.40;99.90;;;;;;4968645;28;20437;-84
2022/11/05 13:44:30;;;;;;;5.97;2.55;;;14.40;99.90;;;;;;4935066;29;20444;-82
2022/11/05 13:47:31;;;;;;;6.18;2.42;;;14.40;99.90;;;;;;4910563;29;20442;-82
2022/11/05 13:50:32;;;;;;;5.25;2.40;;;14.40;99.90;;;;;;4911263;29;20448;-82
2022/11/05 13:53:21;;;;;;;6.95;2.40;;;14.40;99.90;;;;;;4900701;29;20395;-83
2022/11/05 13:56:00;;;;;;;4.55;2.30;;;14.30;99.90;;;;;;4910303;29;20407;-83
2022/11/05 13:58:54;;;;;;;5.95;2.40;;;14.30;99.90;;;;;;4911103;29;20404;-83
2022/11/05 14:01:24;;;;;;;7.03;2.60;;;14.30;99.90;;;;;;4911149;29;20414;-83